createdAt,value
2017-09-17T00:01:50.331Z,12.70
2017-09-17T00:04:16.888Z,14.50
2017-09-17T00:06:43.474Z,12.30
2017-09-17T00:09:09.891Z,13.10
2017-09-17T00:11:36.407Z,13.07
2017-09-17T00:14:04.901Z,12.73
2017-09-17T00:16:31.616Z,13.37
2017-09-17T00:18:58.080Z,13.30
2017-09-17T00:21:24.618Z,13.80
2017-09-17T00:23:51.058Z,16.83
2017-09-17T00:26:17.551Z,17.00
2017-09-17T00:28:43.946Z,15.23
2017-09-17T00:31:10.374Z,14.73
2017-09-17T00:33:36.860Z,15.37
2017-09-17T00:36:04.022Z,14.77
2017-09-17T00:38:30.599Z,14.80
2017-09-17T00:40:57.070Z,16.20
2017-09-17T00:43:23.531Z,16.70
2017-09-17T00:45:50.018Z,15.40
2017-09-17T00:48:16.471Z,18.40
2017-09-17T00:50:43.667Z,17.77
2017-09-17T00:53:10.119Z,16.10
2017-09-17T00:55:36.646Z,17.87
2017-09-17T00:58:03.086Z,17.30
2017-09-17T01:00:29.572Z,17.73
2017-09-17T01:02:57.791Z,17.47
2017-09-17T01:05:24.307Z,16.30
2017-09-17T01:07:50.743Z,17.90
2017-09-17T01:10:17.205Z,17.50
2017-09-17T01:12:43.662Z,15.47
2017-09-17T01:15:11.607Z,18.40
2017-09-17T01:17:38.054Z,17.27
2017-09-17T01:20:04.511Z,16.93
2017-09-17T01:22:31.754Z,17.50
2017-09-17T01:24:58.931Z,21.00
2017-09-17T01:27:25.517Z,18.43
2017-09-17T01:29:53.774Z,15.60
2017-09-17T01:32:20.340Z,17.93
2017-09-17T01:34:46.758Z,17.47
2017-09-17T01:37:13.231Z,18.70
2017-09-17T01:39:40.380Z,16.63
2017-09-17T01:42:07.567Z,17.93
2017-09-17T01:44:33.992Z,18.50
2017-09-17T01:47:00.421Z,17.40
2017-09-17T01:49:26.858Z,19.00
2017-09-17T01:51:53.277Z,20.20
2017-09-17T01:54:20.445Z,19.20
2017-09-17T01:56:47.547Z,17.20
2017-09-17T01:59:13.996Z,17.70
2017-09-17T02:01:41.156Z,16.87
2017-09-17T02:04:08.328Z,16.33
2017-09-17T02:06:34.767Z,17.10
2017-09-17T02:09:01.178Z,16.50
2017-09-17T02:11:27.675Z,15.87
2017-09-17T02:13:54.898Z,18.90
2017-09-17T02:16:21.311Z,17.23
2017-09-17T02:18:47.727Z,16.13
2017-09-17T02:21:14.142Z,17.53
2017-09-17T02:23:41.722Z,19.10
2017-09-17T02:26:08.275Z,20.23
2017-09-17T02:28:34.789Z,22.73
2017-09-17T02:31:01.246Z,21.97
2017-09-17T02:33:27.759Z,21.53
2017-09-17T02:35:54.151Z,24.20
2017-09-17T02:38:20.579Z,22.73
2017-09-17T02:40:47.049Z,26.23
2017-09-17T02:43:14.183Z,24.97
2017-09-17T02:45:40.600Z,24.50
2017-09-17T02:48:08.531Z,24.57
2017-09-17T02:50:34.942Z,21.63
2017-09-17T02:53:01.426Z,22.90
2017-09-17T02:55:28.801Z,23.07
2017-09-17T02:57:55.419Z,26.00
2017-09-17T03:00:21.834Z,25.03
2017-09-17T03:02:48.239Z,25.17
2017-09-17T03:05:14.678Z,23.77
2017-09-17T03:07:41.626Z,25.47
2017-09-17T03:10:08.163Z,25.30
2017-09-17T03:12:34.615Z,24.20
2017-09-17T03:15:01.047Z,24.97
2017-09-17T03:17:27.634Z,24.77
2017-09-17T03:19:54.803Z,26.07
2017-09-17T03:22:21.236Z,23.97
2017-09-17T03:24:47.660Z,23.70
2017-09-17T03:27:14.808Z,22.47
2017-09-17T03:29:41.966Z,23.20
2017-09-17T03:32:08.398Z,22.83
2017-09-17T03:34:34.810Z,22.23
2017-09-17T03:37:01.995Z,22.13
2017-09-17T03:39:28.527Z,17.70
2017-09-17T03:41:54.967Z,16.30
2017-09-17T03:44:21.386Z,15.80
2017-09-17T03:46:47.840Z,14.47
2017-09-17T03:49:14.264Z,13.83
2017-09-17T03:51:40.904Z,13.70
2017-09-17T03:54:07.318Z,15.47
2017-09-17T03:56:34.016Z,13.50
2017-09-17T03:59:01.327Z,13.37
2017-09-17T04:01:27.770Z,14.00
2017-09-17T04:03:54.190Z,14.40
2017-09-17T04:06:20.616Z,13.87
2017-09-17T04:08:47.067Z,12.47
2017-09-17T04:11:13.519Z,14.50
2017-09-17T04:13:39.928Z,13.93
2017-09-17T04:16:06.326Z,13.10
2017-09-17T04:18:34.617Z,13.87
2017-09-17T04:21:01.285Z,14.03
2017-09-17T04:23:27.708Z,14.00
2017-09-17T04:25:54.140Z,13.17
2017-09-17T04:28:20.576Z,13.83
2017-09-17T04:30:47.024Z,14.57
2017-09-17T04:33:13.512Z,14.73
2017-09-17T04:35:40.730Z,13.47
2017-09-17T04:38:07.154Z,15.03
2017-09-17T04:40:33.845Z,13.50
2017-09-17T04:43:00.292Z,12.90
2017-09-17T04:45:26.719Z,14.43
2017-09-17T04:47:53.181Z,14.63
2017-09-17T04:50:19.598Z,17.37
2017-09-17T04:52:46.026Z,15.10
2017-09-17T04:55:12.428Z,16.00
2017-09-17T04:57:39.650Z,15.20
2017-09-17T05:00:07.566Z,13.83
2017-09-17T05:02:35.019Z,15.83
2017-09-17T05:05:02.463Z,15.33
2017-09-17T05:07:29.967Z,13.23
2017-09-17T05:09:56.424Z,14.73
2017-09-17T05:12:22.887Z,21.33
2017-09-17T05:14:49.475Z,15.10
2017-09-17T05:17:15.908Z,16.10
2017-09-17T05:19:42.308Z,14.13
2017-09-17T05:22:08.765Z,14.57
2017-09-17T05:24:35.407Z,13.80
2017-09-17T05:27:01.863Z,13.17
2017-09-17T05:29:29.882Z,14.30
2017-09-17T05:31:56.488Z,15.27
2017-09-17T05:34:23.039Z,14.03
2017-09-17T05:36:49.470Z,14.70
2017-09-17T05:39:21.967Z,12.83
2017-09-17T05:41:48.406Z,14.70
2017-09-17T05:44:14.817Z,13.27
2017-09-17T05:46:42.288Z,12.37
2017-09-17T05:49:08.890Z,14.57
2017-09-17T05:51:36.375Z,12.10
2017-09-17T05:54:02.953Z,12.60
2017-09-17T05:56:29.732Z,11.63
2017-09-17T05:58:56.392Z,14.37
2017-09-17T06:01:22.989Z,10.87
2017-09-17T06:03:49.748Z,11.50
2017-09-17T06:06:16.353Z,11.47
2017-09-17T06:08:42.787Z,12.93
2017-09-17T06:11:09.264Z,14.10
2017-09-17T06:13:36.945Z,10.80
2017-09-17T06:16:04.271Z,11.67
2017-09-17T06:18:31.446Z,11.70
2017-09-17T06:20:57.914Z,10.27
2017-09-17T06:23:24.353Z,11.90
2017-09-17T06:25:51.559Z,12.37
2017-09-17T06:28:18.027Z,10.93
2017-09-17T06:30:44.607Z,11.00
2017-09-17T06:33:11.283Z,10.40
2017-09-17T06:35:39.215Z,9.87
2017-09-17T06:38:05.807Z,11.40
2017-09-17T06:40:33.907Z,10.77
2017-09-17T06:43:01.076Z,11.47
2017-09-17T06:45:27.674Z,10.40
2017-09-17T06:47:54.234Z,11.10
2017-09-17T06:50:20.698Z,10.30
2017-09-17T06:52:47.275Z,11.33
2017-09-17T06:55:13.945Z,10.67
2017-09-17T06:57:41.769Z,11.07
2017-09-17T07:00:08.402Z,10.70
2017-09-17T07:02:36.143Z,9.53
2017-09-17T07:05:03.627Z,9.40
2017-09-17T07:07:30.474Z,9.53
2017-09-17T07:09:56.954Z,10.00
2017-09-17T07:12:23.489Z,12.53
2017-09-17T07:14:50.143Z,10.87
2017-09-17T07:17:16.605Z,9.07
2017-09-17T07:19:43.032Z,11.10
2017-09-17T07:22:09.471Z,8.77
2017-09-17T07:24:36.119Z,8.30
2017-09-17T07:27:02.582Z,8.57
2017-09-17T07:29:29.091Z,9.33
2017-09-17T07:31:55.569Z,8.30
2017-09-17T07:34:22.865Z,8.27
2017-09-17T07:36:50.297Z,8.20
2017-09-17T07:39:17.756Z,8.20
2017-09-17T07:41:50.556Z,9.10
2017-09-17T07:44:17.114Z,7.17
2017-09-17T07:46:43.899Z,7.80
2017-09-17T07:49:10.366Z,6.37
2017-09-17T07:51:38.019Z,7.20
2017-09-17T07:54:04.541Z,7.23
2017-09-17T07:56:32.107Z,6.87
2017-09-17T07:58:58.961Z,10.80
2017-09-17T08:01:25.704Z,6.80
2017-09-17T08:03:52.439Z,6.57
2017-09-17T08:06:19.113Z,6.97
2017-09-17T08:08:47.006Z,7.53
2017-09-17T08:11:14.397Z,6.90
2017-09-17T08:13:41.112Z,7.23
2017-09-17T08:16:07.670Z,6.97
2017-09-17T08:18:34.418Z,8.43
2017-09-17T08:21:00.892Z,8.30
2017-09-17T08:23:28.554Z,6.57
2017-09-17T08:25:56.854Z,7.17
2017-09-17T08:28:23.619Z,7.87
2017-09-17T08:30:50.344Z,7.97
2017-09-17T08:33:17.844Z,8.00
2017-09-17T08:35:45.858Z,7.30
2017-09-17T08:38:13.117Z,6.90
2017-09-17T08:40:39.602Z,7.90
2017-09-17T08:43:06.160Z,7.10
2017-09-17T08:45:33.426Z,7.30
2017-09-17T08:48:01.433Z,7.63
2017-09-17T08:50:28.819Z,6.37
2017-09-17T08:52:55.430Z,6.20
2017-09-17T08:55:21.905Z,7.87
2017-09-17T08:57:48.529Z,7.00
2017-09-17T09:00:15.922Z,5.20
2017-09-17T09:02:42.572Z,6.63
2017-09-17T09:05:09.195Z,6.80
2017-09-17T09:07:35.783Z,5.80
2017-09-17T09:10:03.631Z,6.50
2017-09-17T09:12:30.401Z,6.00
2017-09-17T09:14:56.949Z,5.73
2017-09-17T09:17:23.430Z,5.10
2017-09-17T09:19:49.919Z,6.50
2017-09-17T09:22:16.625Z,5.80
2017-09-17T09:24:43.152Z,5.93
2017-09-17T09:27:09.621Z,6.00
2017-09-17T09:29:36.060Z,6.00
2017-09-17T09:32:02.533Z,6.10
2017-09-17T09:34:29.971Z,6.20
2017-09-17T09:36:57.170Z,4.80
2017-09-17T09:39:23.657Z,6.00
2017-09-17T09:41:50.842Z,6.13
2017-09-17T09:44:17.358Z,5.73
2017-09-17T09:46:44.616Z,5.13
2017-09-17T09:49:11.101Z,5.80
2017-09-17T09:51:37.527Z,5.80
2017-09-17T09:54:03.957Z,5.47
2017-09-17T09:56:30.509Z,5.67
2017-09-17T09:58:56.997Z,5.47
2017-09-17T10:01:24.138Z,5.30
2017-09-17T10:03:51.309Z,6.00
2017-09-17T10:06:17.846Z,5.67
2017-09-17T10:08:44.311Z,5.90
2017-09-17T10:11:12.062Z,5.67
2017-09-17T10:13:38.847Z,5.13
2017-09-17T10:16:20.031Z,5.20
2017-09-17T10:18:47.062Z,4.70
2017-09-17T10:21:13.533Z,5.37
2017-09-17T10:23:40.730Z,5.70
2017-09-17T10:26:07.143Z,5.60
2017-09-17T10:28:33.647Z,5.97
2017-09-17T10:31:00.122Z,5.60
2017-09-17T10:33:26.626Z,5.70
2017-09-17T10:35:53.060Z,5.30
2017-09-17T10:38:19.494Z,6.23
2017-09-17T10:40:45.914Z,5.67
2017-09-17T10:43:13.100Z,5.63
2017-09-17T10:45:39.528Z,5.80
2017-09-17T10:48:05.959Z,5.67
2017-09-17T10:50:32.663Z,6.53
2017-09-17T10:52:59.195Z,6.07
2017-09-17T10:55:26.455Z,8.47
2017-09-17T10:57:53.233Z,5.63
2017-09-17T11:00:19.709Z,6.50
2017-09-17T11:02:46.939Z,6.00
2017-09-17T11:05:13.351Z,6.90
2017-09-17T11:07:39.815Z,6.40
2017-09-17T11:10:06.533Z,7.17
2017-09-17T11:12:33.110Z,6.70
2017-09-17T11:14:59.910Z,5.93
2017-09-17T11:17:27.514Z,7.30
2017-09-17T11:19:54.067Z,6.07
2017-09-17T11:22:20.597Z,6.83
2017-09-17T11:24:47.077Z,6.90
2017-09-17T11:27:13.718Z,7.67
2017-09-17T11:29:40.623Z,7.40
2017-09-17T11:32:07.131Z,6.93
2017-09-17T11:34:34.427Z,6.27
2017-09-17T11:37:00.909Z,7.33
2017-09-17T11:39:27.433Z,7.50
2017-09-17T11:41:54.065Z,7.73
2017-09-17T11:44:22.056Z,6.77
2017-09-17T11:46:48.495Z,6.67
2017-09-17T11:49:15.775Z,7.93
2017-09-17T11:51:42.227Z,7.30
2017-09-17T11:54:08.786Z,8.10
2017-09-17T11:56:35.235Z,7.60
2017-09-17T11:59:01.746Z,7.93
2017-09-17T12:01:28.347Z,9.20
2017-09-17T12:03:54.813Z,7.93
2017-09-17T12:06:21.263Z,7.43
2017-09-17T12:08:47.746Z,7.57
2017-09-17T12:11:14.923Z,7.47
2017-09-17T12:13:41.604Z,8.00
2017-09-17T12:16:08.116Z,8.13
2017-09-17T12:18:34.825Z,7.43
2017-09-17T12:21:01.655Z,9.50
2017-09-17T12:23:28.216Z,8.53
2017-09-17T12:25:54.670Z,8.43
2017-09-17T12:28:21.195Z,8.53
2017-09-17T12:30:47.801Z,8.33
2017-09-17T12:33:14.327Z,7.80
2017-09-17T12:35:40.957Z,7.73
2017-09-17T12:38:07.441Z,8.53
2017-09-17T12:40:33.923Z,8.77
2017-09-17T12:43:00.890Z,8.00
2017-09-17T12:45:27.416Z,7.43
2017-09-17T12:47:54.263Z,7.93
2017-09-17T12:50:21.613Z,8.23
2017-09-17T12:52:48.049Z,8.90
2017-09-17T12:55:14.476Z,8.27
2017-09-17T12:57:41.026Z,8.83
2017-09-17T13:02:35.941Z,7.53
2017-09-17T13:05:02.417Z,6.10
2017-09-17T13:07:29.011Z,6.40
2017-09-17T13:09:55.645Z,9.20
2017-09-17T13:12:22.145Z,6.20
2017-09-17T13:14:48.623Z,5.83
2017-09-17T13:17:15.205Z,6.50
2017-09-17T13:19:41.764Z,6.60
2017-09-17T13:22:08.948Z,6.00
2017-09-17T13:24:35.447Z,6.50
2017-09-17T13:27:01.939Z,6.40
2017-09-17T13:29:28.464Z,7.70
2017-09-17T13:31:56.423Z,7.47
2017-09-17T13:34:22.875Z,8.17
2017-09-17T13:36:49.314Z,8.57
2017-09-17T13:39:15.750Z,8.57
2017-09-17T13:41:42.219Z,9.20
2017-09-17T13:44:08.681Z,9.87
2017-09-17T13:46:35.223Z,9.63
2017-09-17T13:49:01.694Z,10.07
2017-09-17T13:51:28.300Z,10.50
2017-09-17T13:53:54.774Z,11.27
2017-09-17T13:56:21.279Z,10.53
2017-09-17T13:58:47.751Z,11.10
2017-09-17T14:01:26.459Z,12.40
2017-09-17T14:03:53.903Z,14.30
2017-09-17T14:06:23.055Z,11.77
2017-09-17T14:08:55.341Z,12.13
2017-09-17T14:11:22.819Z,12.10
2017-09-17T14:13:49.275Z,11.70
2017-09-17T14:16:15.743Z,11.67
2017-09-17T14:18:42.952Z,10.60
2017-09-17T14:21:09.532Z,10.47
2017-09-17T14:23:36.816Z,10.20
2017-09-17T14:26:03.247Z,10.00
2017-09-17T14:28:30.397Z,9.77
2017-09-17T14:30:57.003Z,10.70
2017-09-17T14:33:23.524Z,10.20
2017-09-17T14:35:50.743Z,9.67
2017-09-17T14:38:17.152Z,10.47
2017-09-17T14:40:43.747Z,10.20
2017-09-17T14:43:10.899Z,10.70
2017-09-17T14:45:38.050Z,11.23
2017-09-17T14:48:05.228Z,12.30
2017-09-17T14:50:31.699Z,12.77
2017-09-17T14:52:58.223Z,15.80
2017-09-17T14:55:24.690Z,11.27
2017-09-17T14:57:51.879Z,12.10
2017-09-17T15:00:18.348Z,12.83
2017-09-17T15:02:44.937Z,13.00
2017-09-17T15:05:11.407Z,12.40
2017-09-17T15:07:37.968Z,13.13
2017-09-17T15:10:05.921Z,14.60
2017-09-17T15:12:32.553Z,11.43
2017-09-17T15:15:00.503Z,12.77
2017-09-17T15:17:26.987Z,13.70
2017-09-17T15:19:54.171Z,12.37
2017-09-17T15:22:20.605Z,12.07
2017-09-17T15:24:47.780Z,10.63
2017-09-17T15:27:14.180Z,13.63
2017-09-17T15:29:40.754Z,12.47
2017-09-17T15:32:07.247Z,11.73
2017-09-17T15:34:34.624Z,11.63
2017-09-17T15:37:01.766Z,12.90
2017-09-17T15:39:28.287Z,12.87
2017-09-17T15:41:54.722Z,12.23
2017-09-17T15:44:21.882Z,11.73
2017-09-17T15:46:48.348Z,11.57
2017-09-17T15:49:14.827Z,12.20
2017-09-17T15:51:41.240Z,10.87
2017-09-17T15:54:08.839Z,12.93
2017-09-17T15:56:35.648Z,12.67
2017-09-17T15:59:02.844Z,12.47
2017-09-17T16:01:29.313Z,11.40
2017-09-17T16:03:55.867Z,10.07
2017-09-17T16:06:23.085Z,10.50
2017-09-17T16:08:50.487Z,10.50
2017-09-17T16:11:16.883Z,13.60
2017-09-17T16:13:43.534Z,11.40
2017-09-17T16:16:10.760Z,11.57
2017-09-17T16:18:37.452Z,11.27
2017-09-17T16:21:03.935Z,11.50
2017-09-17T16:23:30.468Z,12.33
2017-09-17T16:25:56.948Z,11.27
2017-09-17T16:28:24.543Z,11.30
2017-09-17T16:30:51.895Z,12.33
2017-09-17T16:33:18.332Z,11.80
2017-09-17T16:35:44.781Z,11.10
2017-09-17T16:38:11.204Z,10.60
2017-09-17T16:40:37.821Z,10.87
2017-09-17T16:43:04.294Z,10.07
2017-09-17T16:45:30.697Z,9.33
2017-09-17T16:47:58.768Z,11.83
2017-09-17T16:50:26.203Z,9.90
2017-09-17T16:52:52.639Z,10.20
2017-09-17T16:55:19.212Z,10.13
2017-09-17T16:57:45.785Z,9.63
2017-09-17T17:00:12.216Z,13.00
2017-09-17T17:02:38.682Z,10.97
2017-09-17T17:05:05.860Z,11.97
2017-09-17T17:07:32.430Z,12.17
2017-09-17T17:09:58.906Z,12.27
2017-09-17T17:12:26.173Z,16.23
2017-09-17T17:14:52.804Z,15.93
2017-09-17T17:17:19.232Z,13.67
2017-09-17T17:19:46.440Z,14.30
2017-09-17T17:22:12.936Z,19.27
2017-09-17T17:24:39.391Z,26.90
2017-09-17T17:27:05.811Z,22.03
2017-09-17T17:29:32.238Z,26.30
2017-09-17T17:31:58.678Z,53.60
2017-09-17T17:34:25.136Z,65.40
2017-09-17T17:36:51.742Z,67.93
2017-09-17T17:39:18.187Z,22.90
2017-09-17T17:41:44.632Z,25.53
2017-09-17T17:44:11.046Z,43.03
2017-09-17T17:46:37.476Z,48.67
2017-09-17T17:49:03.960Z,18.83
2017-09-17T17:51:30.650Z,16.83
2017-09-17T17:53:57.233Z,19.17
2017-09-17T17:56:24.601Z,71.40
2017-09-17T17:58:51.131Z,18.13
2017-09-17T18:01:17.660Z,20.50
2017-09-17T18:03:44.329Z,74.40
2017-09-17T18:06:10.972Z,19.43
2017-09-17T18:08:37.492Z,25.47
2017-09-17T18:11:03.956Z,19.73
2017-09-17T18:13:30.597Z,35.70
2017-09-17T18:15:57.590Z,21.73
2017-09-17T18:18:24.161Z,27.67
2017-09-17T18:20:50.773Z,24.90
2017-09-17T18:23:17.319Z,20.00
2017-09-17T18:25:44.518Z,18.40
2017-09-17T18:28:10.947Z,18.57
2017-09-17T18:30:37.528Z,20.83
2017-09-17T18:33:04.572Z,46.70
2017-09-17T18:35:31.019Z,22.17
2017-09-17T18:37:57.491Z,23.43
2017-09-17T18:40:23.898Z,18.70
2017-09-17T18:42:50.405Z,19.83
2017-09-17T18:45:17.624Z,18.90
2017-09-17T18:47:44.057Z,16.77
2017-09-17T18:50:10.563Z,16.40
2017-09-17T18:52:37.070Z,14.40
2017-09-17T18:55:03.569Z,15.97
2017-09-17T18:57:30.047Z,16.80
2017-09-17T18:59:57.231Z,19.60
2017-09-17T19:02:23.820Z,18.63
2017-09-17T19:04:51.054Z,20.30
2017-09-17T19:07:17.591Z,19.70
2017-09-17T19:09:44.117Z,20.83
2017-09-17T19:12:10.620Z,34.57
2017-09-17T19:14:37.084Z,39.73
2017-09-17T19:17:03.488Z,27.60
2017-09-17T19:19:30.616Z,32.23
2017-09-17T19:21:58.126Z,22.17
2017-09-17T19:24:25.339Z,20.90
2017-09-17T19:26:51.823Z,18.60
2017-09-17T19:29:19.234Z,19.00
2017-09-17T19:31:45.679Z,17.80
2017-09-17T19:34:13.223Z,22.47
2017-09-17T19:36:40.155Z,23.93
2017-09-17T19:39:06.774Z,22.37
2017-09-17T19:41:35.318Z,22.07
2017-09-17T19:44:02.177Z,21.17
2017-09-17T19:46:28.808Z,16.57
2017-09-17T19:48:55.995Z,17.70
2017-09-17T19:51:23.293Z,22.40
2017-09-17T19:53:50.038Z,25.20
2017-09-17T19:56:17.460Z,21.80
2017-09-17T19:58:43.996Z,20.30
2017-09-17T20:01:10.449Z,27.63
2017-09-17T20:03:36.896Z,20.50
2017-09-17T20:06:03.367Z,21.23
2017-09-17T20:08:30.568Z,14.30
2017-09-17T20:10:57.006Z,11.30
2017-09-17T20:13:23.654Z,10.13
2017-09-17T20:15:50.115Z,9.77
2017-09-17T20:18:17.284Z,11.87
2017-09-17T20:20:43.753Z,9.90
2017-09-17T20:23:10.867Z,9.83
2017-09-17T20:25:38.066Z,9.30
2017-09-17T20:28:04.463Z,9.00
2017-09-17T20:30:31.647Z,8.60
2017-09-17T20:32:58.072Z,10.13
2017-09-17T20:35:24.607Z,8.97
2017-09-17T20:37:51.035Z,9.13
2017-09-17T20:40:17.455Z,12.50
2017-09-17T20:42:43.911Z,10.73
2017-09-17T20:45:10.330Z,8.37
2017-09-17T20:47:37.058Z,8.20
2017-09-17T20:50:05.320Z,9.30
2017-09-17T20:52:31.916Z,7.90
2017-09-17T20:54:58.494Z,8.83
2017-09-17T20:57:25.085Z,7.50
2017-09-17T20:59:51.532Z,12.00
2017-09-17T21:02:18.832Z,8.60
2017-09-17T21:04:45.288Z,9.20
2017-09-17T21:07:11.696Z,8.13
2017-09-17T21:09:38.305Z,9.67
2017-09-17T21:12:05.467Z,8.70
2017-09-17T21:14:32.688Z,6.47
2017-09-17T21:16:59.903Z,7.00
2017-09-17T21:19:26.323Z,35.23
2017-09-17T21:21:52.808Z,10.40
2017-09-17T21:24:19.255Z,8.30
2017-09-17T21:26:45.675Z,8.13
2017-09-17T21:29:13.567Z,7.10
2017-09-17T21:31:40.745Z,7.03
2017-09-17T21:34:07.150Z,6.77
2017-09-17T21:36:34.296Z,7.07
2017-09-17T21:39:02.901Z,6.70
2017-09-17T21:41:29.351Z,7.80
2017-09-17T21:43:55.779Z,7.47
2017-09-17T21:46:22.221Z,7.07
2017-09-17T21:48:48.706Z,7.23
2017-09-17T21:51:15.138Z,7.17
2017-09-17T21:53:42.304Z,7.33
2017-09-17T21:56:09.483Z,8.37
2017-09-17T21:58:35.887Z,7.93
2017-09-17T22:01:03.102Z,7.27
2017-09-17T22:03:29.646Z,6.63
2017-09-17T22:05:56.815Z,8.47
2017-09-17T22:08:24.026Z,8.60
2017-09-17T22:10:50.499Z,7.73
2017-09-17T22:13:17.663Z,7.73
2017-09-17T22:15:44.820Z,6.87
2017-09-17T22:18:11.252Z,6.43
2017-09-17T22:20:37.672Z,6.17
2017-09-17T22:23:04.848Z,6.10
2017-09-17T22:25:31.288Z,7.37
2017-09-17T22:27:58.510Z,7.57
2017-09-17T22:30:25.671Z,7.90
2017-09-17T22:32:52.076Z,8.10
2017-09-17T22:35:18.546Z,8.37
2017-09-17T22:37:45.187Z,6.53
2017-09-17T22:40:11.637Z,6.00
2017-09-17T22:42:38.039Z,6.23
2017-09-17T22:45:04.487Z,6.80
2017-09-17T22:47:30.987Z,7.40
2017-09-17T22:49:58.158Z,7.13
2017-09-17T22:52:24.639Z,7.67
2017-09-17T22:54:51.153Z,7.10
2017-09-17T22:57:17.612Z,7.60
2017-09-17T22:59:45.515Z,6.90
2017-09-17T23:02:12.698Z,6.77
2017-09-17T23:04:39.138Z,7.40
2017-09-17T23:07:05.563Z,8.30
2017-09-17T23:09:32.156Z,10.47
2017-09-17T23:11:58.590Z,10.37
2017-09-17T23:14:25.132Z,9.27
2017-09-17T23:16:51.611Z,8.20
2017-09-17T23:19:24.130Z,9.00
2017-09-17T23:21:51.299Z,8.37
2017-09-17T23:24:17.728Z,8.40
2017-09-17T23:26:44.898Z,9.57
2017-09-17T23:29:11.320Z,7.50
2017-09-17T23:31:38.488Z,8.20
2017-09-17T23:34:04.921Z,7.80
2017-09-17T23:36:31.359Z,7.73
2017-09-17T23:38:57.787Z,7.43
2017-09-17T23:41:24.302Z,6.90
2017-09-17T23:43:50.726Z,7.13
2017-09-17T23:46:17.902Z,7.23
2017-09-17T23:48:44.326Z,7.07
2017-09-17T23:51:10.731Z,7.53
2017-09-17T23:53:43.175Z,7.37
2017-09-17T23:56:09.665Z,6.23
2017-09-17T23:58:36.090Z,6.73
